createdAt,value
2022-09-09T00:01:46.533Z,86.36
2022-09-09T00:07:13.981Z,86.73
2022-09-09T00:12:18.766Z,87.14
2022-09-09T00:17:43.014Z,86.70
2022-09-09T00:22:54.966Z,86.54
2022-09-09T00:27:57.551Z,86.47
2022-09-09T00:33:03.907Z,86.79
2022-09-09T00:38:20.456Z,86.82
2022-09-09T00:43:41.618Z,87.06
2022-09-09T00:49:08.661Z,86.95
2022-09-09T00:54:40.504Z,87.33
2022-09-09T00:59:53.636Z,87.15
2022-09-09T01:05:20.834Z,87.17
2022-09-09T01:10:47.227Z,87.48
2022-09-09T01:15:58.374Z,87.78
2022-09-09T01:21:39.221Z,87.75
2022-09-09T01:26:47.566Z,87.65
2022-09-09T01:32:24.793Z,87.87
2022-09-09T01:37:27.432Z,87.91
2022-09-09T01:42:30.160Z,87.98
2022-09-09T01:47:35.346Z,88.25
2022-09-09T01:53:00.157Z,87.94
2022-09-09T01:58:15.338Z,87.95
2022-09-09T02:03:28.900Z,88.27
2022-09-09T02:08:46.641Z,87.98
2022-09-09T02:13:52.998Z,87.93
2022-09-09T02:19:31.865Z,88.43
2022-09-09T02:24:57.357Z,88.73
2022-09-09T02:30:05.425Z,88.84
2022-09-09T02:35:18.494Z,88.44
2022-09-09T02:40:22.473Z,88.54
2022-09-09T02:45:55.098Z,88.79
2022-09-09T02:51:22.527Z,88.45
2022-09-09T02:56:29.638Z,88.89
2022-09-09T03:01:33.362Z,89.12
2022-09-09T03:06:36.817Z,88.81
2022-09-09T03:11:52.518Z,89.00
2022-09-09T03:16:57.634Z,88.64
2022-09-09T03:22:02.315Z,88.48
2022-09-09T03:27:06.371Z,88.16
2022-09-09T03:32:13.342Z,87.54
2022-09-09T03:37:18.858Z,86.77
2022-09-09T03:42:22.159Z,87.26
2022-09-09T03:47:28.043Z,87.71
2022-09-09T03:52:43.373Z,88.06
2022-09-09T03:57:54.417Z,88.10
2022-09-09T04:02:58.907Z,87.37
2022-09-09T04:08:02.081Z,87.43
2022-09-09T04:13:06.281Z,86.88
2022-09-09T04:18:09.745Z,87.09
2022-09-09T04:23:14.589Z,86.29
2022-09-09T04:28:19.335Z,86.03
2022-09-09T04:33:22.233Z,85.69
2022-09-09T04:38:27.829Z,85.22
2022-09-09T04:43:31.985Z,85.31
2022-09-09T04:48:36.463Z,85.04
2022-09-09T04:53:43.821Z,84.13
2022-09-09T04:58:48.301Z,84.03
2022-09-09T05:03:53.123Z,83.52
2022-09-09T05:08:59.226Z,82.79
2022-09-09T05:14:05.439Z,82.40
2022-09-09T05:19:09.345Z,81.53
2022-09-09T05:24:20.015Z,80.79
2022-09-09T05:29:25.374Z,80.32
2022-09-09T05:34:28.340Z,78.90
2022-09-09T05:39:32.199Z,78.04
2022-09-09T05:44:35.348Z,76.59
2022-09-09T05:49:38.382Z,75.94
2022-09-09T05:54:41.411Z,74.97
2022-09-09T05:59:44.777Z,74.43
2022-09-09T06:04:48.747Z,72.60
2022-09-09T06:09:52.710Z,72.19
2022-09-09T06:14:55.427Z,70.06
2022-09-09T06:19:58.270Z,69.79
2022-09-09T06:25:02.232Z,67.29
2022-09-09T06:30:06.973Z,67.20
2022-09-09T06:35:10.435Z,65.51
2022-09-09T06:40:13.470Z,62.12
2022-09-09T06:45:16.199Z,61.68
2022-09-09T06:50:26.249Z,61.37
2022-09-09T06:55:29.997Z,58.28
2022-09-09T07:00:32.727Z,59.45
2022-09-09T07:05:35.950Z,60.16
2022-09-09T07:10:38.887Z,59.60
2022-09-09T07:15:42.590Z,59.52
2022-09-09T07:20:55.442Z,58.37
2022-09-09T07:26:00.379Z,58.77
2022-09-09T07:31:05.506Z,57.87
2022-09-09T07:36:13.520Z,57.97
2022-09-09T07:41:25.789Z,55.78
2022-09-09T07:46:28.478Z,53.79
2022-09-09T07:51:34.292Z,53.68
2022-09-09T07:56:40.285Z,53.98
2022-09-09T08:01:47.603Z,54.21
2022-09-09T08:06:57.369Z,53.41
2022-09-09T08:12:02.169Z,53.74
2022-09-09T08:17:05.929Z,51.68
2022-09-09T08:22:09.621Z,49.28
2022-09-09T08:27:15.100Z,49.60
2022-09-09T08:32:20.044Z,49.61
2022-09-09T08:37:22.779Z,49.17
2022-09-09T08:42:48.034Z,50.01
2022-09-09T08:48:19.227Z,49.51
2022-09-09T08:53:31.463Z,50.01
2022-09-09T08:58:37.759Z,49.01
2022-09-09T09:04:09.948Z,47.50
2022-09-09T09:10:00.599Z,45.25
2022-09-09T09:15:19.600Z,47.26
2022-09-09T09:20:44.778Z,46.85
2022-09-09T09:25:52.636Z,47.03
2022-09-09T09:31:08.382Z,46.68
2022-09-09T09:36:16.354Z,46.72
2022-09-09T09:41:31.900Z,46.82
2022-09-09T09:46:34.700Z,46.83
2022-09-09T09:51:45.732Z,45.70
2022-09-09T09:56:49.001Z,45.09
2022-09-09T10:01:52.685Z,47.05
2022-09-09T10:06:57.101Z,47.37
2022-09-09T10:12:10.247Z,47.32
2022-09-09T10:17:24.876Z,45.93
2022-09-09T10:22:29.986Z,43.45
2022-09-09T10:28:06.186Z,43.04
2022-09-09T10:33:35.286Z,44.12
2022-09-09T10:38:44.582Z,45.38
2022-09-09T10:44:07.359Z,43.43
2022-09-09T10:49:39.501Z,42.89
2022-09-09T10:54:48.015Z,43.09
2022-09-09T10:59:57.943Z,43.67
2022-09-09T11:05:19.580Z,44.84
2022-09-09T11:10:41.314Z,43.96
2022-09-09T11:15:48.719Z,43.99
2022-09-09T11:21:01.026Z,44.03
2022-09-09T11:26:06.947Z,42.98
2022-09-09T11:31:19.046Z,43.08
2022-09-09T11:36:21.520Z,42.44
2022-09-09T11:41:24.217Z,43.71
2022-09-09T11:46:37.658Z,43.33
2022-09-09T11:51:41.142Z,41.64
2022-09-09T11:56:45.718Z,41.88
2022-09-09T12:01:57.415Z,45.42
2022-09-09T12:07:09.384Z,46.44
2022-09-09T12:12:15.838Z,46.37
2022-09-09T12:17:24.292Z,45.65
2022-09-09T12:22:39.494Z,44.68
2022-09-09T12:28:03.121Z,43.05
2022-09-09T12:33:14.166Z,41.22
2022-09-09T12:38:31.988Z,40.00
2022-09-09T12:43:34.906Z,40.62
2022-09-09T12:48:43.070Z,40.32
2022-09-09T12:53:47.531Z,39.66
2022-09-09T12:58:52.839Z,40.57
2022-09-09T13:03:56.260Z,41.06
2022-09-09T13:09:01.475Z,41.14
2022-09-09T13:14:04.583Z,41.57
2022-09-09T13:19:16.826Z,41.47
2022-09-09T13:24:30.592Z,42.31
2022-09-09T13:29:33.790Z,42.04
2022-09-09T13:34:37.825Z,43.04
2022-09-09T13:39:40.706Z,42.42
2022-09-09T13:44:43.368Z,42.07
2022-09-09T13:49:46.825Z,42.26
2022-09-09T13:54:51.851Z,42.21
2022-09-09T14:00:11.289Z,42.36
2022-09-09T14:05:14.077Z,43.27
2022-09-09T14:10:16.892Z,43.86
2022-09-09T14:15:20.208Z,44.58
2022-09-09T14:20:23.398Z,44.67
2022-09-09T14:25:25.962Z,44.50
2022-09-09T14:30:28.887Z,43.96
2022-09-09T14:35:31.718Z,44.30
2022-09-09T14:40:36.846Z,43.95
2022-09-09T14:45:39.481Z,43.63
2022-09-09T14:50:43.003Z,44.11
2022-09-09T14:55:47.057Z,44.69
2022-09-09T15:00:49.797Z,44.77
2022-09-09T15:05:52.381Z,44.97
2022-09-09T15:11:03.319Z,45.34
2022-09-09T15:16:11.922Z,46.11
2022-09-09T15:21:20.252Z,46.63
2022-09-09T15:26:23.194Z,46.77
2022-09-09T15:31:31.537Z,47.25
2022-09-09T15:36:37.378Z,47.60
2022-09-09T15:41:41.003Z,47.49
2022-09-09T15:46:53.181Z,47.99
2022-09-09T15:51:58.847Z,48.62
2022-09-09T15:57:03.821Z,49.29
2022-09-09T16:02:06.484Z,49.81
2022-09-09T16:07:09.209Z,51.13
2022-09-09T16:12:13.277Z,52.35
2022-09-09T16:17:16.347Z,52.88
2022-09-09T16:22:19.389Z,53.60
2022-09-09T16:27:24.349Z,54.53
2022-09-09T16:32:26.921Z,56.30
2022-09-09T16:37:30.562Z,57.93
2022-09-09T16:42:36.331Z,59.72
2022-09-09T16:47:42.669Z,60.47
2022-09-09T16:52:45.297Z,61.70
2022-09-09T16:57:51.236Z,62.15
2022-09-09T17:02:54.029Z,63.21
2022-09-09T17:07:59.300Z,64.01
2022-09-09T17:13:02.807Z,65.43
2022-09-09T17:18:05.450Z,65.33
2022-09-09T17:23:10.352Z,66.37
2022-09-09T17:28:13.281Z,67.33
2022-09-09T17:33:15.848Z,67.65
2022-09-09T17:38:18.807Z,68.74
2022-09-09T17:43:21.499Z,68.66
2022-09-09T17:48:24.631Z,69.50
2022-09-09T17:53:27.473Z,69.66
2022-09-09T17:58:30.285Z,70.39
2022-09-09T18:03:38.747Z,71.25
2022-09-09T18:08:43.571Z,71.73
2022-09-09T18:13:51.283Z,71.98
2022-09-09T18:18:55.935Z,72.28
2022-09-09T18:24:04.249Z,72.38
2022-09-09T18:29:11.217Z,72.92
2022-09-09T18:34:17.300Z,73.26
2022-09-09T18:39:21.582Z,73.60
2022-09-09T18:44:26.763Z,73.64
2022-09-09T18:49:29.905Z,74.33
2022-09-09T18:54:34.816Z,74.39
2022-09-09T18:59:37.487Z,74.75
2022-09-09T19:04:40.111Z,75.06
2022-09-09T19:09:42.775Z,75.34
2022-09-09T19:14:45.554Z,75.46
2022-09-09T19:19:51.534Z,75.97
2022-09-09T19:24:55.882Z,76.15
2022-09-09T19:29:58.525Z,76.69
2022-09-09T19:35:01.982Z,76.72
2022-09-09T19:40:08.120Z,76.46
2022-09-09T19:45:10.733Z,77.78
2022-09-09T19:50:13.818Z,77.36
2022-09-09T19:55:16.649Z,77.52
2022-09-09T20:00:19.252Z,78.05
2022-09-09T20:05:23.844Z,77.99
2022-09-09T20:10:26.452Z,78.13
2022-09-09T20:15:29.022Z,78.26
2022-09-09T20:20:31.602Z,78.51
2022-09-09T20:25:37.057Z,78.71
2022-09-09T20:30:39.913Z,79.36
2022-09-09T20:35:42.500Z,78.51
2022-09-09T20:40:45.907Z,79.27
2022-09-09T20:45:50.192Z,78.99
2022-09-09T20:50:54.169Z,79.74
2022-09-09T20:56:00.510Z,79.79
2022-09-09T21:01:05.313Z,79.80
2022-09-09T21:06:08.306Z,79.93
2022-09-09T21:11:13.113Z,80.31
2022-09-09T21:16:19.534Z,80.38
2022-09-09T21:21:22.486Z,80.71
2022-09-09T21:26:25.871Z,80.73
2022-09-09T21:31:28.719Z,80.70
2022-09-09T21:36:31.432Z,80.55
2022-09-09T21:41:34.031Z,81.06
2022-09-09T21:46:37.603Z,81.26
2022-09-09T21:51:40.943Z,81.86
2022-09-09T21:56:43.619Z,82.36
2022-09-09T22:01:46.485Z,82.20
2022-09-09T22:06:49.064Z,82.33
2022-09-09T22:11:52.779Z,82.33
2022-09-09T22:16:55.362Z,82.38
2022-09-09T22:21:57.962Z,82.65
2022-09-09T22:27:01.321Z,82.84
2022-09-09T22:32:05.674Z,82.66
2022-09-09T22:37:08.270Z,83.17
2022-09-09T22:42:10.889Z,83.24
2022-09-09T22:47:13.520Z,83.31
2022-09-09T22:52:17.181Z,83.95
2022-09-09T22:57:19.802Z,83.91
2022-09-09T23:02:23.138Z,83.71
2022-09-09T23:07:25.730Z,83.84
2022-09-09T23:12:30.188Z,83.83
2022-09-09T23:17:34.468Z,83.80
2022-09-09T23:22:40.639Z,84.26
2022-09-09T23:27:43.585Z,84.21
2022-09-09T23:32:49.254Z,84.51
2022-09-09T23:37:52.113Z,84.42
2022-09-09T23:42:55.429Z,84.64
2022-09-09T23:47:58.158Z,84.64
2022-09-09T23:53:01.997Z,84.30
2022-09-09T23:58:05.119Z,84.83
